createdAt,value
2023-05-21T00:02:01.748Z,15.80
2023-05-21T00:04:31.986Z,15.60
2023-05-21T00:07:00.450Z,14.90
2023-05-21T00:09:28.577Z,14.90
2023-05-21T00:11:56.869Z,14.80
2023-05-21T00:14:26.987Z,17.33
2023-05-21T00:16:55.218Z,16.17
2023-05-21T00:19:23.427Z,15.73
2023-05-21T00:21:51.739Z,14.63
2023-05-21T00:24:20.174Z,15.60
2023-05-21T00:26:48.405Z,15.10
2023-05-21T00:29:16.656Z,14.93
2023-05-21T00:31:46.414Z,14.77
2023-05-21T00:34:15.381Z,15.30
2023-05-21T00:36:45.410Z,15.20
2023-05-21T00:39:14.685Z,15.13
2023-05-21T00:41:43.222Z,16.13
2023-05-21T00:44:13.986Z,15.97
2023-05-21T00:46:44.218Z,15.60
2023-05-21T00:49:15.075Z,15.97
2023-05-21T00:51:45.275Z,15.80
2023-05-21T00:54:13.952Z,18.50
2023-05-21T00:56:42.721Z,17.00
2023-05-21T00:59:11.206Z,16.93
2023-05-21T01:01:39.584Z,16.30
2023-05-21T01:04:07.977Z,15.70
2023-05-21T01:06:37.880Z,17.23
2023-05-21T01:09:07.420Z,15.53
2023-05-21T01:11:41.641Z,16.40
2023-05-21T01:14:12.860Z,16.80
2023-05-21T01:16:43.195Z,17.20
2023-05-21T01:19:15.131Z,16.80
2023-05-21T01:21:48.109Z,17.30
2023-05-21T01:24:18.744Z,16.50
2023-05-21T01:26:46.984Z,15.60
2023-05-21T01:29:16.031Z,15.67
2023-05-21T01:31:55.576Z,16.23
2023-05-21T01:34:29.700Z,15.30
2023-05-21T01:37:04.965Z,15.63
2023-05-21T01:39:39.801Z,15.20
2023-05-21T01:42:11.999Z,16.57
2023-05-21T01:44:41.263Z,15.90
2023-05-21T01:47:11.162Z,16.80
2023-05-21T01:49:40.671Z,16.43
2023-05-21T01:52:09.540Z,15.57
2023-05-21T01:54:39.395Z,16.93
2023-05-21T01:57:08.497Z,15.37
2023-05-21T01:59:37.545Z,16.30
2023-05-21T02:02:06.381Z,15.40
2023-05-21T02:04:34.619Z,15.27
2023-05-21T02:07:03.519Z,16.10
2023-05-21T02:09:31.873Z,15.37
2023-05-21T02:12:02.571Z,14.50
2023-05-21T02:14:30.936Z,15.63
2023-05-21T02:16:59.211Z,14.87
2023-05-21T02:19:27.520Z,15.20
2023-05-21T02:21:56.290Z,15.20
2023-05-21T02:24:24.624Z,14.23
2023-05-21T02:26:52.992Z,15.97
2023-05-21T02:29:22.662Z,12.80
2023-05-21T02:31:51.627Z,16.60
2023-05-21T02:34:20.989Z,14.40
2023-05-21T02:36:52.379Z,15.00
2023-05-21T02:39:20.926Z,14.13
2023-05-21T02:41:50.427Z,14.47
2023-05-21T02:44:19.333Z,14.83
2023-05-21T02:46:48.896Z,13.67
2023-05-21T02:49:18.696Z,14.70
2023-05-21T02:51:48.922Z,14.90
2023-05-21T02:54:17.319Z,14.37
2023-05-21T02:56:45.650Z,14.30
2023-05-21T02:59:13.772Z,13.37
2023-05-21T03:01:42.508Z,13.73
2023-05-21T03:04:12.196Z,15.50
2023-05-21T03:06:40.482Z,14.57
2023-05-21T03:09:08.976Z,15.63
2023-05-21T03:11:37.333Z,14.00
2023-05-21T03:14:06.388Z,13.70
2023-05-21T03:16:34.793Z,14.80
2023-05-21T03:19:03.222Z,15.03
2023-05-21T03:21:33.871Z,15.63
2023-05-21T03:24:02.111Z,14.23
2023-05-21T03:26:30.882Z,15.20
2023-05-21T03:29:01.780Z,14.40
2023-05-21T03:31:30.456Z,13.87
2023-05-21T03:34:10.619Z,13.77
2023-05-21T03:36:40.382Z,15.13
2023-05-21T03:39:08.741Z,14.20
2023-05-21T03:41:37.344Z,13.80
2023-05-21T03:44:10.255Z,14.57
2023-05-21T03:46:48.692Z,14.97
2023-05-21T03:49:31.950Z,13.70
2023-05-21T03:52:02.428Z,14.60
2023-05-21T03:54:31.225Z,14.17
2023-05-21T03:57:04.590Z,15.30
2023-05-21T03:59:34.305Z,13.83
2023-05-21T04:02:03.038Z,15.97
2023-05-21T04:04:31.352Z,16.30
2023-05-21T04:06:59.737Z,15.50
2023-05-21T04:09:29.568Z,15.00
2023-05-21T04:11:58.873Z,16.77
2023-05-21T04:14:27.092Z,16.60
2023-05-21T04:16:55.375Z,16.77
2023-05-21T04:19:23.833Z,15.50
2023-05-21T04:21:52.114Z,17.37
2023-05-21T04:24:20.781Z,16.30
2023-05-21T04:26:57.461Z,14.93
2023-05-21T04:29:26.067Z,15.63
2023-05-21T04:31:55.049Z,17.37
2023-05-21T04:34:23.748Z,16.40
2023-05-21T04:36:52.465Z,16.63
2023-05-21T04:39:20.681Z,17.90
2023-05-21T04:41:50.870Z,18.03
2023-05-21T04:44:20.699Z,18.80
2023-05-21T04:46:49.134Z,17.60
2023-05-21T04:49:21.096Z,16.30
2023-05-21T04:51:49.905Z,19.13
2023-05-21T04:54:18.210Z,18.10
2023-05-21T04:56:47.632Z,17.70
2023-05-21T04:59:16.831Z,17.20
2023-05-21T05:01:46.713Z,18.40
2023-05-21T05:04:14.947Z,18.30
2023-05-21T05:06:43.150Z,18.27
2023-05-21T05:09:12.312Z,20.40
2023-05-21T05:11:40.926Z,17.23
2023-05-21T05:14:09.168Z,18.17
2023-05-21T05:16:37.434Z,17.23
2023-05-21T05:19:07.089Z,18.80
2023-05-21T05:21:35.427Z,17.20
2023-05-21T05:24:03.735Z,18.27
2023-05-21T05:26:33.534Z,18.23
2023-05-21T05:29:02.055Z,18.07
2023-05-21T05:31:30.638Z,19.47
2023-05-21T05:33:59.046Z,18.90
2023-05-21T05:36:28.800Z,19.30
2023-05-21T05:38:56.990Z,20.17
2023-05-21T05:41:25.148Z,21.40
2023-05-21T05:43:53.306Z,20.50
2023-05-21T05:46:23.530Z,21.63
2023-05-21T05:48:52.889Z,22.57
2023-05-21T05:51:21.187Z,21.70
2023-05-21T05:53:51.065Z,25.23
2023-05-21T05:56:19.340Z,23.67
2023-05-21T05:58:47.819Z,22.90
2023-05-21T06:01:17.779Z,23.57
2023-05-21T06:03:46.657Z,25.13
2023-05-21T06:06:19.847Z,23.43
2023-05-21T06:08:50.198Z,24.30
2023-05-21T06:11:21.706Z,25.73
2023-05-21T06:13:49.940Z,24.10
2023-05-21T06:16:19.275Z,23.60
2023-05-21T06:18:48.260Z,23.80
2023-05-21T06:21:19.381Z,25.53
2023-05-21T06:23:48.382Z,25.33
2023-05-21T06:26:19.412Z,26.13
2023-05-21T06:28:50.113Z,23.97
2023-05-21T06:31:19.006Z,24.50
2023-05-21T06:33:49.513Z,25.27
2023-05-21T06:36:18.077Z,24.40
2023-05-21T06:38:47.238Z,25.70
2023-05-21T06:41:15.625Z,27.20
2023-05-21T06:43:58.090Z,23.33
2023-05-21T06:46:38.696Z,26.00
2023-05-21T06:49:10.034Z,26.13
2023-05-21T06:51:38.861Z,26.60
2023-05-21T06:54:07.301Z,24.37
2023-05-21T06:56:37.562Z,25.00
2023-05-21T06:59:07.128Z,24.97
2023-05-21T07:01:36.230Z,27.80
2023-05-21T07:04:04.585Z,25.57
2023-05-21T07:06:33.318Z,27.50
2023-05-21T07:09:01.802Z,25.13
2023-05-21T07:11:31.736Z,26.47
2023-05-21T07:14:01.840Z,26.20
2023-05-21T07:16:34.081Z,24.67
2023-05-21T07:19:02.387Z,24.50
2023-05-21T07:21:30.937Z,25.87
2023-05-21T07:23:59.633Z,25.00
2023-05-21T07:26:27.786Z,26.87
2023-05-21T07:28:57.321Z,26.50
2023-05-21T07:31:26.065Z,25.47
2023-05-21T07:33:56.484Z,26.30
2023-05-21T07:36:30.071Z,27.10
2023-05-21T07:38:58.415Z,24.80
2023-05-21T07:41:26.554Z,25.77
2023-05-21T07:43:55.123Z,25.23
2023-05-21T07:46:24.007Z,24.40
2023-05-21T07:48:57.748Z,23.97
2023-05-21T07:51:26.839Z,25.33
2023-05-21T07:53:56.325Z,27.30
2023-05-21T07:56:32.407Z,25.90
2023-05-21T07:59:01.330Z,25.60
2023-05-21T08:01:30.820Z,25.20
2023-05-21T08:04:05.743Z,24.50
2023-05-21T08:06:37.718Z,26.13
2023-05-21T08:09:06.905Z,25.50
2023-05-21T08:11:35.166Z,26.27
2023-05-21T08:14:03.978Z,25.80
2023-05-21T08:16:32.989Z,24.43
2023-05-21T08:19:02.733Z,24.23
2023-05-21T08:21:32.753Z,25.60
2023-05-21T08:24:02.826Z,23.80
2023-05-21T08:26:31.193Z,25.17
2023-05-21T08:28:59.596Z,25.00
2023-05-21T08:31:28.232Z,27.90
2023-05-21T08:33:57.369Z,24.70
2023-05-21T08:36:48.207Z,25.00
2023-05-21T08:39:39.425Z,25.60
2023-05-21T08:42:32.974Z,24.73
2023-05-21T08:45:07.751Z,23.50
2023-05-21T08:47:37.409Z,25.37
2023-05-21T08:50:10.908Z,24.60
2023-05-21T08:52:41.084Z,25.30
2023-05-21T08:55:10.561Z,24.80
2023-05-21T08:57:44.454Z,23.80
2023-05-21T09:00:16.179Z,25.10
2023-05-21T09:02:46.385Z,23.43
2023-05-21T09:05:16.193Z,21.97
2023-05-21T09:07:52.820Z,23.93
2023-05-21T09:10:36.824Z,23.17
2023-05-21T09:13:05.745Z,25.17
2023-05-21T09:15:34.349Z,24.57
2023-05-21T09:18:02.834Z,24.60
2023-05-21T09:20:52.380Z,22.97
2023-05-21T09:23:22.118Z,23.40
2023-05-21T09:25:51.963Z,26.03
2023-05-21T09:28:28.877Z,24.47
2023-05-21T09:30:57.119Z,25.70
2023-05-21T09:33:30.764Z,24.90
2023-05-21T09:35:59.573Z,24.53
2023-05-21T09:38:31.115Z,22.57
2023-05-21T09:40:59.841Z,22.17
2023-05-21T09:43:28.872Z,23.40
2023-05-21T09:46:01.277Z,21.07
2023-05-21T09:48:37.865Z,23.23
2023-05-21T09:51:13.704Z,21.03
2023-05-21T09:53:50.811Z,20.10
2023-05-21T09:56:24.642Z,20.97
2023-05-21T09:58:54.949Z,21.57
2023-05-21T10:01:24.653Z,20.33
2023-05-21T10:03:57.639Z,21.37
2023-05-21T10:06:27.654Z,19.30
2023-05-21T10:08:58.418Z,19.57
2023-05-21T10:11:28.190Z,19.83
2023-05-21T10:13:59.497Z,21.50
2023-05-21T10:16:28.011Z,21.80
2023-05-21T10:18:57.700Z,20.07
2023-05-21T10:21:27.656Z,17.43
2023-05-21T10:23:59.138Z,18.20
2023-05-21T10:26:28.347Z,19.40
2023-05-21T10:29:00.259Z,21.13
2023-05-21T10:31:29.352Z,18.73
2023-05-21T10:33:57.893Z,19.47
2023-05-21T10:36:26.465Z,19.77
2023-05-21T10:38:55.281Z,18.07
2023-05-21T10:41:27.565Z,19.20
2023-05-21T10:44:08.502Z,20.13
2023-05-21T10:47:12.771Z,21.50
2023-05-21T10:49:56.412Z,23.03
2023-05-21T10:52:45.869Z,20.97
2023-05-21T10:55:27.799Z,19.40
2023-05-21T10:58:44.057Z,19.97
2023-05-21T11:01:13.720Z,21.50
2023-05-21T11:03:42.464Z,20.63
2023-05-21T11:06:11.687Z,20.97
2023-05-21T11:08:48.709Z,20.90
2023-05-21T11:11:46.184Z,20.93
2023-05-21T11:14:35.072Z,20.03
2023-05-21T11:17:05.186Z,22.20
2023-05-21T11:19:38.553Z,22.20
2023-05-21T11:22:12.029Z,20.17
2023-05-21T11:24:41.567Z,20.70
2023-05-21T11:27:09.999Z,21.57
2023-05-21T11:29:44.697Z,19.20
2023-05-21T11:32:15.446Z,19.73
2023-05-21T11:34:46.065Z,20.10
2023-05-21T11:37:27.757Z,21.00
2023-05-21T11:39:57.122Z,19.13
2023-05-21T11:42:34.305Z,21.37
2023-05-21T11:45:05.199Z,18.27
2023-05-21T11:47:33.808Z,17.70
2023-05-21T11:50:03.986Z,17.33
2023-05-21T11:52:33.145Z,18.67
2023-05-21T11:55:01.761Z,17.07
2023-05-21T11:57:31.951Z,18.20
2023-05-21T12:00:01.892Z,17.10
2023-05-21T12:02:33.459Z,16.97
2023-05-21T12:05:01.750Z,17.37
2023-05-21T12:07:31.388Z,17.30
2023-05-21T12:10:00.033Z,14.83
2023-05-21T12:12:38.623Z,17.23
2023-05-21T12:15:14.889Z,15.50
2023-05-21T12:17:44.497Z,16.77
2023-05-21T12:20:16.646Z,16.20
2023-05-21T12:22:46.550Z,15.93
2023-05-21T12:25:15.153Z,14.77
2023-05-21T12:27:45.121Z,14.70
2023-05-21T12:30:14.705Z,15.50
2023-05-21T12:32:45.637Z,15.40
2023-05-21T12:35:23.429Z,15.30
2023-05-21T12:37:52.611Z,14.27
2023-05-21T12:40:22.449Z,16.60
2023-05-21T12:42:52.070Z,14.83
2023-05-21T12:45:22.771Z,14.40
2023-05-21T12:47:56.471Z,15.87
2023-05-21T12:50:25.166Z,15.00
2023-05-21T12:52:56.504Z,14.60
2023-05-21T12:55:26.181Z,13.90
2023-05-21T12:58:04.016Z,15.10
2023-05-21T13:00:34.326Z,14.77
2023-05-21T13:03:06.620Z,14.33
2023-05-21T13:05:35.906Z,14.27
2023-05-21T13:08:04.237Z,15.20
2023-05-21T13:10:32.496Z,13.63
2023-05-21T13:13:01.852Z,13.70
2023-05-21T13:15:30.298Z,15.13
2023-05-21T13:18:01.172Z,15.30
2023-05-21T13:20:31.372Z,13.43
2023-05-21T13:22:59.847Z,14.20
2023-05-21T13:25:29.638Z,12.67
2023-05-21T13:27:58.671Z,13.60
2023-05-21T13:30:26.941Z,12.97
2023-05-21T13:32:55.668Z,13.90
2023-05-21T13:35:24.317Z,14.40
2023-05-21T13:37:53.937Z,12.83
2023-05-21T13:40:22.894Z,13.50
2023-05-21T13:42:51.442Z,13.90
2023-05-21T13:45:21.517Z,12.33
2023-05-21T13:47:49.951Z,12.77
2023-05-21T13:50:18.392Z,12.47
2023-05-21T13:52:47.149Z,11.60
2023-05-21T13:55:17.219Z,13.03
2023-05-21T13:57:46.116Z,12.60
2023-05-21T14:00:16.231Z,11.80
2023-05-21T14:02:45.412Z,12.30
2023-05-21T14:05:14.481Z,12.43
2023-05-21T14:07:43.114Z,12.57
2023-05-21T14:10:12.397Z,12.13
2023-05-21T14:12:42.180Z,10.67
2023-05-21T14:15:11.995Z,11.77
2023-05-21T14:17:42.500Z,12.57
2023-05-21T14:20:11.476Z,10.80
2023-05-21T14:22:39.972Z,10.87
2023-05-21T14:25:08.850Z,10.90
2023-05-21T14:27:38.483Z,10.80
2023-05-21T14:30:09.571Z,11.70
2023-05-21T14:32:37.910Z,10.80
2023-05-21T14:35:07.011Z,9.30
2023-05-21T14:37:35.525Z,9.60
2023-05-21T14:40:05.664Z,10.83
2023-05-21T14:42:33.840Z,10.57
2023-05-21T14:45:17.388Z,9.40
2023-05-21T14:47:49.023Z,11.13
2023-05-21T14:50:20.342Z,10.63
2023-05-21T14:52:48.521Z,10.93
2023-05-21T14:55:18.407Z,10.63
2023-05-21T14:57:46.660Z,11.27
2023-05-21T15:00:15.602Z,10.80
2023-05-21T15:02:44.079Z,9.57
2023-05-21T15:05:13.799Z,10.90
2023-05-21T15:07:42.033Z,10.30
2023-05-21T15:10:11.170Z,9.83
2023-05-21T15:12:39.883Z,10.60
2023-05-21T15:15:09.259Z,9.70
2023-05-21T15:17:37.770Z,10.50
2023-05-21T15:20:07.627Z,10.47
2023-05-21T15:22:38.200Z,10.63
2023-05-21T15:25:07.442Z,10.90
2023-05-21T15:27:36.029Z,9.40
2023-05-21T15:30:05.232Z,9.50
2023-05-21T15:32:33.650Z,11.33
2023-05-21T15:35:02.180Z,9.97
2023-05-21T15:37:32.426Z,9.93
2023-05-21T15:40:02.146Z,8.57
2023-05-21T15:42:31.880Z,10.77
2023-05-21T15:45:00.294Z,10.87
2023-05-21T15:47:28.758Z,10.30
2023-05-21T15:49:58.854Z,9.70
2023-05-21T15:52:27.229Z,9.97
2023-05-21T15:54:55.627Z,10.50
2023-05-21T15:57:25.431Z,9.10
2023-05-21T15:59:53.672Z,9.60
2023-05-21T16:02:21.996Z,9.93
2023-05-21T16:04:52.249Z,9.77
2023-05-21T16:07:21.087Z,8.23
2023-05-21T16:09:49.295Z,8.77
2023-05-21T16:12:17.542Z,9.07
2023-05-21T16:14:50.060Z,9.90
2023-05-21T16:17:18.474Z,9.50
2023-05-21T16:19:47.739Z,9.10
2023-05-21T16:22:16.507Z,9.90
2023-05-21T16:24:44.761Z,9.60
2023-05-21T16:27:13.091Z,9.30
2023-05-21T16:29:41.465Z,9.90
2023-05-21T16:32:13.198Z,9.83
2023-05-21T16:34:41.461Z,9.57
2023-05-21T16:37:10.065Z,9.57
2023-05-21T16:39:38.420Z,9.43
2023-05-21T16:42:07.429Z,8.67
2023-05-21T16:44:37.111Z,9.20
2023-05-21T16:47:05.862Z,8.73
2023-05-21T16:49:35.774Z,9.63
2023-05-21T16:52:04.055Z,9.80
2023-05-21T16:54:32.282Z,9.93
2023-05-21T16:57:00.827Z,9.43
2023-05-21T16:59:29.555Z,9.73
2023-05-21T17:04:26.214Z,9.13
2023-05-21T17:06:55.818Z,9.27
2023-05-21T17:09:24.075Z,9.30
2023-05-21T17:11:52.489Z,10.87
2023-05-21T17:14:33.193Z,10.80
2023-05-21T17:17:03.214Z,9.57
2023-05-21T17:19:31.727Z,10.73
2023-05-21T17:22:01.541Z,11.63
2023-05-21T17:24:30.068Z,11.23
2023-05-21T17:26:58.280Z,9.43
2023-05-21T17:29:26.612Z,8.80
2023-05-21T17:31:56.640Z,9.80
2023-05-21T17:34:29.517Z,9.17
2023-05-21T17:36:59.000Z,9.10
2023-05-21T17:39:28.605Z,8.40
2023-05-21T17:41:57.780Z,9.43
2023-05-21T17:44:26.256Z,8.63
2023-05-21T17:46:54.679Z,9.17
2023-05-21T17:49:23.349Z,7.10
2023-05-21T17:51:51.769Z,7.80
2023-05-21T17:54:21.286Z,7.10
2023-05-21T17:56:51.189Z,7.53
2023-05-21T17:59:19.465Z,7.93
2023-05-21T18:01:47.701Z,7.50
2023-05-21T18:04:16.263Z,7.80
2023-05-21T18:06:44.493Z,7.87
2023-05-21T18:09:14.419Z,7.93
2023-05-21T18:11:44.887Z,7.27
2023-05-21T18:14:14.641Z,8.37
2023-05-21T18:16:42.895Z,7.50
2023-05-21T18:19:11.218Z,7.00
2023-05-21T18:21:39.748Z,8.07
2023-05-21T18:24:08.607Z,8.00
2023-05-21T18:26:37.132Z,7.70
2023-05-21T18:29:05.532Z,8.10
2023-05-21T18:31:35.420Z,8.03
2023-05-21T18:34:03.877Z,8.60
2023-05-21T18:36:38.427Z,8.23
2023-05-21T18:39:07.502Z,8.37
2023-05-21T18:41:35.904Z,7.83
2023-05-21T18:44:05.994Z,7.40
2023-05-21T18:46:36.186Z,7.77
2023-05-21T18:49:04.767Z,6.90
2023-05-21T18:51:33.303Z,6.87
2023-05-21T18:54:01.550Z,7.13
2023-05-21T18:56:29.979Z,7.43
2023-05-21T18:58:58.384Z,6.70
2023-05-21T19:01:26.831Z,8.00
2023-05-21T19:03:56.723Z,7.10
2023-05-21T19:06:25.818Z,7.53
2023-05-21T19:08:54.684Z,7.17
2023-05-21T19:11:23.790Z,7.90
2023-05-21T19:13:52.091Z,8.00
2023-05-21T19:16:20.447Z,7.77
2023-05-21T19:18:48.951Z,8.00
2023-05-21T19:21:18.948Z,7.97
2023-05-21T19:23:53.082Z,7.80
2023-05-21T19:26:22.575Z,7.80
2023-05-21T19:28:53.697Z,8.27
2023-05-21T19:31:22.920Z,7.07
2023-05-21T19:33:51.432Z,7.93
2023-05-21T19:36:22.046Z,7.80
2023-05-21T19:38:51.316Z,8.13
2023-05-21T19:41:20.070Z,8.20
2023-05-21T19:43:48.685Z,7.67
2023-05-21T19:46:20.106Z,8.50
2023-05-21T19:48:51.695Z,7.33
2023-05-21T19:51:21.448Z,8.90
2023-05-21T19:53:49.813Z,9.30
2023-05-21T19:56:18.100Z,8.43
2023-05-21T19:58:48.146Z,8.73
2023-05-21T20:01:17.529Z,8.43
2023-05-21T20:03:46.294Z,9.40
2023-05-21T20:06:16.989Z,9.87
2023-05-21T20:08:46.837Z,9.20
2023-05-21T20:11:15.283Z,8.90
2023-05-21T20:13:48.524Z,9.30
2023-05-21T20:16:18.337Z,11.27
2023-05-21T20:18:47.433Z,8.93
2023-05-21T20:21:17.623Z,9.80
2023-05-21T20:23:48.065Z,9.93
2023-05-21T20:26:16.779Z,11.00
2023-05-21T20:28:45.971Z,10.63
2023-05-21T20:31:14.496Z,10.13
2023-05-21T20:33:43.144Z,10.53
2023-05-21T20:36:11.345Z,9.70
2023-05-21T20:38:42.200Z,10.90
2023-05-21T20:41:12.092Z,10.27
2023-05-21T20:43:40.416Z,10.77
2023-05-21T20:46:08.829Z,10.70
2023-05-21T20:48:37.885Z,10.20
2023-05-21T20:51:06.358Z,9.57
2023-05-21T20:53:34.519Z,7.73
2023-05-21T20:56:02.771Z,9.23
2023-05-21T20:58:33.693Z,8.43
2023-05-21T21:01:02.014Z,8.40
2023-05-21T21:03:34.215Z,9.33
2023-05-21T21:06:04.305Z,8.90
2023-05-21T21:08:34.744Z,8.17
2023-05-21T21:11:02.972Z,8.63
2023-05-21T21:13:32.548Z,7.60
2023-05-21T21:16:00.783Z,7.97
2023-05-21T21:18:29.120Z,8.40
2023-05-21T21:20:57.427Z,7.70
2023-05-21T21:23:26.238Z,8.00
2023-05-21T21:25:54.559Z,7.83
2023-05-21T21:28:22.957Z,8.83
2023-05-21T21:30:52.636Z,7.80
2023-05-21T21:33:20.992Z,7.60
2023-05-21T21:35:49.519Z,8.20
2023-05-21T21:38:17.909Z,8.23
2023-05-21T21:40:46.418Z,7.80
2023-05-21T21:43:14.803Z,8.37
2023-05-21T21:45:43.232Z,7.80
2023-05-21T21:48:12.966Z,7.73
2023-05-21T21:50:41.574Z,8.83
2023-05-21T21:53:09.917Z,8.10
2023-05-21T21:55:38.177Z,9.00
2023-05-21T21:58:06.758Z,9.30
2023-05-21T22:00:35.071Z,8.33
2023-05-21T22:03:03.450Z,8.23
2023-05-21T22:05:34.017Z,8.53
2023-05-21T22:08:03.155Z,8.73
2023-05-21T22:10:33.701Z,8.27
2023-05-21T22:13:02.747Z,8.07
2023-05-21T22:15:32.367Z,9.63
2023-05-21T22:18:02.470Z,9.80
2023-05-21T22:20:33.236Z,8.60
2023-05-21T22:23:02.058Z,10.40
2023-05-21T22:25:30.776Z,8.70
2023-05-21T22:27:59.093Z,8.90
2023-05-21T22:30:27.336Z,8.30
2023-05-21T22:32:56.838Z,8.83
2023-05-21T22:35:25.431Z,9.87
2023-05-21T22:37:55.043Z,8.73
2023-05-21T22:40:23.368Z,8.57
2023-05-21T22:42:51.729Z,9.13
2023-05-21T22:45:21.703Z,9.80
2023-05-21T22:47:52.183Z,9.23
2023-05-21T22:50:20.673Z,9.30
2023-05-21T22:52:49.217Z,10.10
2023-05-21T22:55:19.992Z,9.53
2023-05-21T22:57:49.710Z,10.00
2023-05-21T23:00:19.296Z,9.50
2023-05-21T23:02:47.674Z,8.97
2023-05-21T23:05:16.446Z,10.40
2023-05-21T23:07:44.718Z,9.63
2023-05-21T23:10:13.318Z,10.67
2023-05-21T23:12:43.236Z,10.70
2023-05-21T23:15:12.536Z,10.60
2023-05-21T23:17:41.166Z,10.80
2023-05-21T23:20:10.572Z,11.50
2023-05-21T23:22:39.127Z,11.13
2023-05-21T23:25:08.576Z,10.50
2023-05-21T23:27:36.737Z,12.63
2023-05-21T23:30:07.883Z,11.17
2023-05-21T23:32:36.297Z,11.13
2023-05-21T23:35:04.920Z,11.13
2023-05-21T23:37:33.254Z,11.97
2023-05-21T23:40:01.835Z,9.93
2023-05-21T23:42:30.338Z,10.40
2023-05-21T23:44:58.713Z,10.90
2023-05-21T23:47:28.580Z,11.90
2023-05-21T23:49:57.034Z,11.27
2023-05-21T23:52:25.472Z,10.53
2023-05-21T23:54:53.847Z,10.70
2023-05-21T23:57:22.329Z,11.30
2023-05-21T23:59:50.704Z,11.30
